Time;durP1;ratioP1;P1;durP2;ratioP2;P2;SDS_P1;SDS_P2;PMS_P1;PMS_P2;Temp;Humidity;BMP_temperature;BMP_pressure;BME280_temperature;BME280_humidity;BME280_pressure;Samples;Min_cycle;Max_cycle;Signal;HPM_P1;HPM_P2
2022/05/08 00:02:15;;;;;;;9.35;2.08;;;;;;;8.44;100.00;102547.28;10108239;28;20043;-63
2022/05/08 00:07:12;;;;;;;19.25;3.13;;;;;;;8.50;100.00;102545.44;10092103;28;20047;-63
2022/05/08 00:12:11;;;;;;;13.07;3.10;;;;;;;8.43;100.00;102548.38;10108239;28;20148;-64
2022/05/08 00:17:13;;;;;;;16.40;2.45;;;;;;;8.40;100.00;102551.59;10078766;28;20483;-64
2022/05/08 00:22:13;;;;;;;16.97;3.07;;;;;;;8.35;100.00;102548.78;10105429;28;20114;-64
2022/05/08 00:27:29;;;;;;;14.25;2.00;;;;;;;8.32;100.00;102550.13;10071477;28;20473;-62
2022/05/08 00:32:26;;;;;;;21.45;3.83;;;;;;;8.32;100.00;102544.69;10100808;28;20141;-62
2022/05/08 00:37:22;;;;;;;20.42;2.47;;;;;;;8.19;100.00;102542.34;10089577;28;20074;-62
2022/05/08 00:42:19;;;;;;;14.57;2.08;;;;;;;8.04;100.00;102545.75;10101995;28;20542;-63
2022/05/08 00:47:16;;;;;;;14.80;2.42;;;;;;;8.12;100.00;102544.47;10081591;28;20182;-63
2022/05/08 00:52:13;;;;;;;15.65;2.03;;;;;;;8.10;100.00;102536.56;10102592;28;20059;-63
2022/05/08 00:57:10;;;;;;;15.68;2.42;;;;;;;8.00;100.00;102541.88;10105509;28;20134;-63
2022/05/08 01:02:06;;;;;;;12.70;2.28;;;;;;;7.97;100.00;102539.69;10090999;28;20118;-63
2022/05/08 01:07:04;;;;;;;17.45;2.20;;;;;;;7.94;100.00;102545.66;10084312;28;20113;-64
2022/05/08 01:12:00;;;;;;;16.98;2.63;;;;;;;7.89;100.00;102537.41;10082699;28;20555;-64
2022/05/08 01:16:57;;;;;;;20.20;2.70;;;;;;;7.85;100.00;102547.19;10083420;28;20110;-64
2022/05/08 01:21:53;;;;;;;15.20;2.28;;;;;;;7.89;100.00;102542.84;10106836;28;20061;-63
2022/05/08 01:26:50;;;;;;;19.60;2.90;;;;;;;7.85;100.00;102541.75;10103251;28;20075;-65
2022/05/08 01:31:47;;;;;;;14.55;2.78;;;;;;;7.83;100.00;102541.16;10085881;28;20443;-64
2022/05/08 01:36:43;;;;;;;16.90;2.30;;;;;;;7.74;100.00;102547.03;10084556;28;20043;-64
2022/05/08 01:41:40;;;;;;;12.73;2.85;;;;;;;7.77;100.00;102549.28;10096879;28;20047;-65
2022/05/08 01:46:36;;;;;;;18.08;3.05;;;;;;;7.66;100.00;102552.09;10097719;28;20046;-64
2022/05/08 01:51:33;;;;;;;14.73;2.10;;;;;;;7.66;100.00;102555.69;10110839;28;20054;-64
2022/05/08 01:56:29;;;;;;;13.60;2.60;;;;;;;7.60;100.00;102553.94;10101606;28;20145;-64
2022/05/08 02:01:26;;;;;;;11.43;2.80;;;;;;;7.53;100.00;102556.03;10110108;28;20055;-64
2022/05/08 02:06:23;;;;;;;13.18;2.40;;;;;;;7.37;100.00;102561.28;10104358;28;20051;-64
2022/05/08 02:11:19;;;;;;;13.50;2.60;;;;;;;7.32;100.00;102563.94;10111880;28;20210;-64
2022/05/08 02:16:15;;;;;;;13.23;2.15;;;;;;;7.25;100.00;102563.28;10075114;28;20063;-63
2022/05/08 02:21:12;;;;;;;17.25;2.85;;;;;;;7.20;100.00;102565.94;10083044;28;20082;-63
2022/05/08 02:26:08;;;;;;;17.00;3.03;;;;;;;7.19;100.00;102558.81;10080742;28;20491;-63
2022/05/08 02:31:05;;;;;;;24.10;2.97;;;;;;;7.06;100.00;102565.47;10090567;28;20471;-65
2022/05/08 02:36:02;;;;;;;18.98;3.58;;;;;;;7.08;100.00;102565.22;10108580;28;20100;-64
2022/05/08 02:40:58;;;;;;;14.05;3.15;;;;;;;6.95;100.00;102563.66;10100837;28;20071;-64
2022/05/08 02:45:59;;;;;;;12.88;3.13;;;;;;;6.86;100.00;102560.50;10096732;28;20462;-64
2022/05/08 02:50:56;;;;;;;15.05;3.08;;;;;;;6.99;100.00;102564.81;10082072;28;20050;-64
2022/05/08 03:01:07;;;;;;;17.30;4.00;;;;;;;6.89;100.00;102562.75;10110253;28;20058;-64
2022/05/08 03:06:05;;;;;;;15.45;3.60;;;;;;;6.81;100.00;102556.91;10093017;28;20455;-64
2022/05/08 03:16:18;;;;;;;17.90;3.95;;;;;;;6.75;100.00;102564.13;10079138;28;20059;-63
2022/05/08 03:21:16;;;;;;;19.20;4.03;;;;;;;6.70;100.00;102566.78;10104158;28;20113;-64
2022/05/08 03:26:14;;;;;;;15.13;4.32;;;;;;;6.64;100.00;102573.22;10101811;28;20047;-64
2022/05/08 03:31:10;;;;;;;19.02;3.60;;;;;;;6.60;100.00;102566.63;10109431;28;20055;-64
2022/05/08 03:36:10;;;;;;;15.15;3.60;;;;;;;6.59;100.00;102570.38;10080775;28;20063;-63
2022/05/08 03:41:08;;;;;;;14.45;3.80;;;;;;;6.59;100.00;102570.38;10092849;28;20476;-63
2022/05/08 03:46:05;;;;;;;19.27;4.28;;;;;;;6.51;100.00;102580.59;10098956;28;20138;-64
2022/05/08 03:51:02;;;;;;;17.80;4.60;;;;;;;6.44;100.00;102574.50;10107390;28;20078;-64
2022/05/08 03:55:58;;;;;;;25.02;4.63;;;;;;;6.46;100.00;102572.34;10088271;28;20051;-64
2022/05/08 04:00:54;;;;;;;12.02;4.00;;;;;;;6.45;100.00;102578.03;10074744;28;20078;-64
2022/05/08 04:05:51;;;;;;;15.05;3.97;;;;;;;6.57;100.00;102583.38;10097785;28;20059;-64
2022/05/08 04:10:47;;;;;;;16.30;4.90;;;;;;;6.52;100.00;102587.69;10069887;28;20090;-64
2022/05/08 04:20:59;;;;;;;14.93;3.85;;;;;;;6.53;100.00;102578.44;10105248;28;20058;-64
2022/05/08 04:25:56;;;;;;;23.95;4.13;;;;;;;6.52;100.00;102582.25;10115133;28;20774;-63
2022/05/08 04:30:52;;;;;;;23.08;6.90;;;;;;;6.54;100.00;102590.13;10092576;28;20063;-63
2022/05/08 04:35:51;;;;;;;16.15;4.10;;;;;;;6.60;100.00;102594.63;10094224;28;20042;-63
2022/05/08 04:40:47;;;;;;;20.33;3.90;;;;;;;6.52;100.00;102592.28;10099381;28;20083;-63
2022/05/08 04:45:44;;;;;;;15.07;4.45;;;;;;;6.61;100.00;102600.88;10083960;28;20086;-64
2022/05/08 04:50:40;;;;;;;18.83;3.85;;;;;;;6.60;100.00;102607.38;10093696;28;20142;-64
2022/05/08 04:55:37;;;;;;;16.17;2.58;;;;;;;6.64;100.00;102609.38;10092445;28;20130;-65
2022/05/08 05:00:34;;;;;;;13.75;2.78;;;;;;;6.64;100.00;102611.28;10109957;28;20070;-64
2022/05/08 05:05:30;;;;;;;15.05;3.00;;;;;;;6.73;100.00;102615.25;10088823;28;20471;-64
2022/05/08 05:10:27;;;;;;;13.13;2.72;;;;;;;6.81;100.00;102611.28;10108452;28;20046;-64
2022/05/08 05:15:24;;;;;;;12.82;3.53;;;;;;;6.82;100.00;102611.00;10104700;28;20548;-62
2022/05/08 05:20:20;;;;;;;11.75;4.38;;;;;;;7.00;100.00;102620.03;10114230;28;20086;-62
2022/05/08 05:25:17;;;;;;;11.70;2.35;;;;;;;6.94;100.00;102622.66;10095352;28;20059;-62
2022/05/08 05:30:15;;;;;;;13.80;2.85;;;;;;;7.02;100.00;102623.31;10082461;28;20134;-64
2022/05/08 05:35:13;;;;;;;22.48;3.20;;;;;;;7.06;100.00;102629.91;10103144;28;20046;-62
2022/05/08 05:40:09;;;;;;;15.40;2.60;;;;;;;7.09;100.00;102635.66;10103316;28;20644;-64
2022/05/08 05:45:08;;;;;;;13.40;3.50;;;;;;;7.23;100.00;102640.78;10080973;28;20427;-64
2022/05/08 05:50:05;;;;;;;16.08;2.50;;;;;;;7.34;100.00;102643.41;10095063;28;20062;-64
2022/05/08 05:55:06;;;;;;;13.90;1.92;;;;;;;7.47;100.00;102657.75;10091036;28;20050;-66
2022/05/08 06:00:04;;;;;;;13.85;1.90;;;;;;;7.54;100.00;102661.13;10102980;28;20110;-65
2022/05/08 06:05:00;;;;;;;15.68;2.30;;;;;;;7.69;100.00;102655.09;10090578;28;20492;-63
2022/05/08 06:09:57;;;;;;;18.75;2.55;;;;;;;7.78;100.00;102653.59;10072450;28;20134;-65
2022/05/08 06:14:54;;;;;;;20.42;2.88;;;;;;;7.72;100.00;102649.94;10077754;28;20055;-63
2022/05/08 06:19:50;;;;;;;13.73;2.63;;;;;;;7.76;100.00;102662.00;10070664;28;20058;-62
2022/05/08 06:24:47;;;;;;;17.95;3.15;;;;;;;7.77;100.00;102666.38;10066650;28;20176;-65
2022/05/08 06:29:43;;;;;;;17.48;2.47;;;;;;;7.87;100.00;102662.16;10068442;28;20102;-64
2022/05/08 06:34:41;;;;;;;17.73;3.15;;;;;;;7.96;100.00;102660.59;10072290;28;20586;-65
2022/05/08 06:39:38;;;;;;;21.08;3.03;;;;;;;8.16;100.00;102657.31;10053826;28;20098;-65
2022/05/08 06:44:35;;;;;;;24.83;3.25;;;;;;;8.24;100.00;102656.88;10082867;28;20327;-65
2022/05/08 06:49:31;;;;;;;18.27;3.30;;;;;;;8.35;100.00;102672.25;10066890;28;20380;-65
2022/05/08 06:54:28;;;;;;;26.10;3.17;;;;;;;8.46;100.00;102675.97;10063936;28;20794;-64
2022/05/08 07:04:40;;;;;;;15.15;3.05;;;;;;;8.49;100.00;102690.97;10076173;28;20126;-64
2022/05/08 07:09:37;;;;;;;22.10;2.70;;;;;;;8.61;100.00;102688.97;10052207;28;20113;-64
2022/05/08 07:14:34;;;;;;;22.70;3.08;;;;;;;8.76;100.00;102685.56;10046127;28;20047;-64
2022/05/08 07:19:30;;;;;;;21.38;2.85;;;;;;;8.92;100.00;102681.91;10083268;28;20066;-66
2022/05/08 07:24:27;;;;;;;18.10;2.28;;;;;;;9.05;100.00;102686.94;10069177;28;20130;-63
2022/05/08 07:29:23;;;;;;;13.57;2.22;;;;;;;9.13;100.00;102679.34;10077215;28;20149;-66
2022/05/08 07:39:35;;;;;;;16.60;2.33;;;;;;;9.40;100.00;102687.47;10074593;28;20093;-65
2022/05/08 07:44:31;;;;;;;13.18;2.45;;;;;;;9.61;100.00;102681.09;10066145;28;20070;-66
2022/05/08 07:49:28;;;;;;;26.42;3.65;;;;;;;9.76;100.00;102694.00;10083864;28;20074;-65
2022/05/08 07:54:25;;;;;;;10.10;2.30;;;;;;;9.83;100.00;102683.66;10072298;28;20077;-66
2022/05/08 07:59:22;;;;;;;15.02;2.58;;;;;;;10.06;100.00;102698.81;10067160;28;20074;-65
2022/05/08 08:04:18;;;;;;;17.50;2.92;;;;;;;10.09;100.00;102697.44;10083241;28;20129;-65
2022/05/08 08:09:15;;;;;;;14.77;2.70;;;;;;;10.15;100.00;102701.88;10083777;28;20147;-65
2022/05/08 08:14:12;;;;;;;17.08;2.92;;;;;;;10.27;100.00;102702.47;10106584;28;20491;-65
2022/05/08 08:19:30;;;;;;;12.85;2.83;;;;;;;10.39;100.00;102698.72;10079919;28;20058;-65
2022/05/08 08:24:27;;;;;;;19.73;3.63;;;;;;;10.48;100.00;102716.25;10075095;28;20077;-66
2022/05/08 08:29:25;;;;;;;16.30;2.72;;;;;;;10.65;100.00;102696.88;10056715;28;20447;-66
2022/05/08 08:34:22;;;;;;;12.73;2.33;;;;;;;10.65;100.00;102705.91;10072064;28;20137;-67
2022/05/08 08:39:18;;;;;;;16.33;3.38;;;;;;;10.64;100.00;102704.25;10073064;28;20110;-64
2022/05/08 08:49:38;;;;;;;14.70;2.60;;;;;;;11.07;100.00;102702.16;10070742;28;20135;-64
2022/05/08 08:54:34;;;;;;;14.27;3.42;;;;;;;11.19;100.00;102707.34;10079169;28;20082;-65
2022/05/08 08:59:31;;;;;;;11.52;2.30;;;;;;;11.31;97.74;102707.09;10078074;28;20574;-65
2022/05/08 09:04:28;;;;;;;12.82;2.28;;;;;;;11.50;100.00;102705.41;10091480;28;20098;-66
2022/05/08 09:09:29;;;;;;;17.30;2.75;;;;;;;11.64;99.39;102721.28;10094144;28;21128;-64
2022/05/08 09:14:34;;;;;;;12.48;2.38;;;;;;;11.92;100.00;102704.25;10077360;28;20053;-64
2022/05/08 09:19:37;;;;;;;13.07;2.50;;;;;;;12.14;96.49;102714.09;10080347;28;20081;-64
2022/05/08 09:24:38;;;;;;;15.15;2.50;;;;;;;12.32;95.93;102724.44;10087965;28;20055;-64
2022/05/08 09:29:34;;;;;;;12.02;3.05;;;;;;;12.55;91.57;102719.38;10098407;28;20402;-65
2022/05/08 09:34:58;;;;;;;14.77;2.35;;;;;;;12.67;88.42;102717.13;10083824;28;20051;-64
2022/05/08 09:40:14;;;;;;;16.33;3.00;;;;;;;12.89;88.39;102708.47;10091218;28;20051;-64
2022/05/08 09:45:11;;;;;;;13.95;3.05;;;;;;;13.21;84.89;102707.97;10086640;28;20082;-64
2022/05/08 09:50:08;;;;;;;10.20;2.45;;;;;;;13.37;72.91;102705.13;10103995;28;20066;-65
2022/05/08 09:55:09;;;;;;;13.23;2.03;;;;;;;13.72;77.57;102708.66;10105760;28;20138;-65
2022/05/08 10:00:08;;;;;;;11.32;2.50;;;;;;;13.96;79.20;102698.47;10112894;28;20129;-65
2022/05/08 10:05:05;;;;;;;12.95;2.40;;;;;;;14.76;70.12;102705.19;10083829;28;20082;-65
2022/05/08 10:15:20;;;;;;;14.32;2.85;;;;;;;16.28;55.72;102705.50;10079586;28;20205;-65
2022/05/08 10:20:58;;;;;;;14.15;2.83;;;;;;;17.94;56.29;102698.47;10078734;28;20136;-65
2022/05/08 10:26:17;;;;;;;12.05;2.50;;;;;;;18.25;47.03;102710.28;10078723;28;20130;-65
2022/05/08 10:31:41;;;;;;;10.40;2.13;;;;;;;18.43;42.30;102710.34;10103738;28;20102;-65
2022/05/08 10:36:40;;;;;;;11.20;2.83;;;;;;;18.78;42.14;102710.41;10100698;28;20679;-65
2022/05/08 10:41:43;;;;;;;8.02;2.38;;;;;;;19.39;42.90;102707.56;10105666;28;20050;-64
2022/05/08 10:46:39;;;;;;;18.90;2.85;;;;;;;19.19;41.78;102703.50;10103053;28;20778;-64
2022/05/08 10:51:38;;;;;;;12.80;3.03;;;;;;;19.70;41.24;102690.66;10099194;28;20491;-64
2022/05/08 10:56:46;;;;;;;9.73;2.53;;;;;;;20.21;38.22;102694.34;10100727;28;20133;-65
2022/05/08 11:01:49;;;;;;;12.90;2.72;;;;;;;20.46;36.07;102688.94;10088276;28;20671;-65
2022/05/08 11:06:50;;;;;;;8.43;2.67;;;;;;;20.58;36.07;102702.94;10090967;28;20046;-65
2022/05/08 11:11:47;;;;;;;9.30;2.53;;;;;;;21.21;38.94;102698.16;10107182;28;20133;-65
2022/05/08 11:16:44;;;;;;;10.02;2.40;;;;;;;20.93;35.08;102708.22;10102022;28;20044;-65
2022/05/08 11:21:41;;;;;;;13.45;2.55;;;;;;;19.95;35.75;102708.38;10102627;28;20138;-65
2022/05/08 11:26:37;;;;;;;10.73;2.50;;;;;;;20.32;36.74;102684.47;10098438;28;20404;-65
2022/05/08 11:31:35;;;;;;;10.65;2.30;;;;;;;21.23;34.89;102684.72;10108597;28;20077;-65
2022/05/08 11:36:36;;;;;;;9.48;2.72;;;;;;;21.19;33.18;102689.34;10091040;28;20423;-65
2022/05/08 11:41:32;;;;;;;12.15;2.60;;;;;;;21.10;34.63;102685.81;10072422;28;20055;-64
2022/05/08 11:46:38;;;;;;;10.27;3.05;;;;;;;20.15;35.46;102674.28;10088780;28;20482;-65
2022/05/08 11:51:41;;;;;;;10.85;2.72;;;;;;;19.69;34.82;102681.53;10109722;28;20053;-66
2022/05/08 11:56:38;;;;;;;;;;;;;;;19.86;36.91;102686.19;10097787;28;20109;-67
2022/05/08 12:01:35;;;;;;;9.23;2.58;;;;;;;19.76;38.71;102683.81;10109454;28;20065;-67
2022/05/08 12:06:32;;;;;;;12.70;2.30;;;;;;;19.08;37.74;102681.69;10081443;28;20117;-67
2022/05/08 12:11:33;;;;;;;9.25;2.63;;;;;;;18.64;38.56;102667.00;10108362;28;20074;-66
2022/05/08 12:16:31;;;;;;;11.40;2.90;;;;;;;18.72;40.91;102674.50;10084564;28;20148;-67
2022/05/08 12:21:28;;;;;;;22.10;3.67;;;;;;;18.05;38.79;102677.66;10094262;28;20510;-67
2022/05/08 12:26:25;;;;;;;9.32;2.17;;;;;;;18.63;39.66;102670.91;10089071;28;20102;-67
2022/05/08 12:31:22;;;;;;;12.73;2.25;;;;;;;19.01;38.76;102659.19;10108422;28;20043;-68
2022/05/08 12:36:18;;;;;;;11.35;2.95;;;;;;;18.74;38.34;102665.06;10098424;28;20043;-67
2022/05/08 12:41:15;;;;;;;9.93;2.35;;;;;;;19.23;38.49;102654.56;10104965;28;20109;-68
2022/05/08 12:46:13;;;;;;;14.27;3.33;;;;;;;19.60;38.42;102660.50;10110013;28;20167;-67
2022/05/08 12:51:09;;;;;;;39.10;28.65;;;;;;;19.79;37.47;102649.81;10096909;28;20058;-67
2022/05/08 12:56:06;;;;;;;11.45;2.83;;;;;;;19.62;36.31;102655.44;10107219;28;20133;-68
2022/05/08 13:01:04;;;;;;;9.48;2.78;;;;;;;19.51;36.66;102649.41;10114049;28;20109;-68
2022/05/08 13:06:00;;;;;;;14.13;3.53;;;;;;;18.69;37.37;102647.44;10109931;28;20542;-68
2022/05/08 13:10:57;;;;;;;13.77;5.93;;;;;;;18.76;37.64;102646.16;10107713;28;20483;-67
2022/05/08 13:15:53;;;;;;;13.55;3.90;;;;;;;19.40;39.84;102637.91;10105466;28;20478;-68
2022/05/08 13:20:50;;;;;;;10.80;2.72;;;;;;;19.10;37.66;102626.72;10099369;28;20511;-67
2022/05/08 13:25:46;;;;;;;15.80;7.78;;;;;;;19.03;38.00;102623.63;10097848;28;20043;-68
2022/05/08 13:30:43;;;;;;;13.07;2.50;;;;;;;18.95;38.22;102627.22;10110746;28;20047;-68
2022/05/08 13:35:39;;;;;;;12.50;2.50;;;;;;;18.80;37.87;102614.72;10101934;28;20070;-67
2022/05/08 13:40:37;;;;;;;10.05;2.38;;;;;;;19.08;37.89;102620.69;10101563;28;20054;-68
2022/05/08 13:45:33;;;;;;;12.80;2.58;;;;;;;19.52;37.85;102617.78;10101366;28;20055;-67
2022/05/08 13:50:38;;;;;;;12.95;2.60;;;;;;;19.67;36.92;102619.16;10089965;28;20585;-67
2022/05/08 13:55:39;;;;;;;10.07;1.98;;;;;;;19.82;36.51;102624.19;10092591;28;20078;-70
2022/05/08 14:00:38;;;;;;;14.48;3.15;;;;;;;19.93;35.61;102617.06;10082242;28;20527;-69
2022/05/08 14:05:36;;;;;;;10.05;2.55;;;;;;;20.05;35.51;102607.22;10085068;28;20281;-64
2022/05/08 14:10:33;;;;;;;13.65;2.35;;;;;;;19.62;35.48;102616.59;10081172;28;20396;-64
2022/05/08 14:15:31;;;;;;;14.93;2.72;;;;;;;19.46;36.97;102608.81;10084332;28;20039;-64
2022/05/08 14:20:28;;;;;;;12.57;2.38;;;;;;;19.28;36.79;102608.06;10077364;28;20523;-64
2022/05/08 14:25:25;;;;;;;11.05;2.45;;;;;;;18.85;37.94;102599.88;10076211;28;20080;-64
2022/05/08 14:30:21;;;;;;;13.93;2.35;;;;;;;18.87;38.37;102598.41;10072935;28;20615;-65
2022/05/08 14:40:36;;;;;;;10.23;2.53;;;;;;;18.95;39.08;102593.97;10087771;28;20062;-63
2022/05/08 14:45:34;;;;;;;6.72;1.70;;;;;;;18.97;39.86;102586.16;10083167;28;20073;-63
2022/05/08 14:50:32;;;;;;;14.38;2.45;;;;;;;18.94;38.95;102589.59;10087224;28;20569;-63
2022/05/08 14:55:30;;;;;;;12.43;2.72;;;;;;;19.07;39.12;102591.31;10084092;28;20042;-64
2022/05/08 15:00:26;;;;;;;12.80;2.28;;;;;;;-146.18;100.00;67994.34;10075472;28;20063;-66
2022/05/08 15:05:23;;;;;;;11.48;3.03;;;;;;;-146.18;100.00;67994.34;10070479;28;20082;-66
2022/05/08 15:10:19;;;;;;;10.20;2.85;;;;;;;-146.18;100.00;67994.34;10084617;28;20471;-66
2022/05/08 15:15:16;;;;;;;13.05;2.53;;;;;;;-146.18;100.00;67994.34;10064664;28;20142;-65
2022/05/08 15:20:13;;;;;;;10.15;2.40;;;;;;;-146.18;100.00;67994.34;10092270;28;20565;-66
2022/05/08 15:25:09;;;;;;;11.18;2.60;;;;;;;-146.18;100.00;67994.34;10087102;28;20147;-66
2022/05/08 15:30:06;;;;;;;11.27;2.17;;;;;;;-146.18;100.00;67994.34;10070619;28;20082;-66
2022/05/08 15:35:03;;;;;;;9.13;2.28;;;;;;;-146.18;100.00;67994.34;10077817;28;20097;-66
2022/05/08 15:40:00;;;;;;;11.13;3.10;;;;;;;-146.18;100.00;67994.34;10091192;28;20047;-67
2022/05/08 15:44:58;;;;;;;12.07;2.90;;;;;;;-146.18;100.00;67994.34;10082295;28;20608;-66
2022/05/08 15:49:55;;;;;;;9.25;1.95;;;;;;;-146.18;100.00;67994.34;10084732;28;20058;-66
2022/05/08 15:54:51;;;;;;;7.38;2.05;;;;;;;-146.18;100.00;67994.34;10086338;28;20134;-65
2022/05/08 15:59:47;;;;;;;7.93;2.10;;;;;;;-146.18;100.00;67994.34;10081200;28;20047;-67
2022/05/08 16:04:46;;;;;;;9.98;2.30;;;;;;;-146.18;100.00;67994.34;10092486;28;20070;-66
2022/05/08 16:09:42;;;;;;;8.15;1.85;;;;;;;-146.18;100.00;67994.34;10083866;28;21566;-67
2022/05/08 16:25:09;;;;;;;12.50;1.95;;;;;;;-146.18;100.00;67994.34;10091716;28;20086;-63
2022/05/08 16:30:06;;;;;;;7.05;1.58;;;;;;;-146.18;100.00;67994.34;10090732;28;20126;-64
2022/05/08 16:35:04;;;;;;;6.18;1.88;;;;;;;-146.18;100.00;67994.34;10083868;28;20098;-64
2022/05/08 16:40:02;;;;;;;6.90;1.70;;;;;;;-146.18;100.00;67994.34;10083608;28;20058;-64
2022/05/08 16:44:59;;;;;;;6.97;1.60;;;;;;;-146.18;100.00;67994.34;10079145;28;20118;-63
2022/05/08 16:49:56;;;;;;;5.70;1.60;;;;;;;-146.18;100.00;67994.34;10088798;28;20459;-63
2022/05/08 16:54:55;;;;;;;7.13;2.20;;;;;;;-146.18;100.00;67994.34;10086770;28;20088;-63
2022/05/08 16:59:51;;;;;;;7.55;1.67;;;;;;;-146.18;100.00;67994.34;10087651;28;20094;-64
2022/05/08 17:04:48;;;;;;;8.48;2.25;;;;;;;-146.18;100.00;67994.34;10082186;28;20058;-63
2022/05/08 17:09:45;;;;;;;8.38;2.45;;;;;;;-146.18;100.00;67994.34;10082327;28;20039;-63
2022/05/08 17:14:42;;;;;;;7.03;1.80;;;;;;;-146.18;100.00;67994.34;10086059;28;20626;-64
2022/05/08 17:19:39;;;;;;;9.55;3.22;;;;;;;-146.18;100.00;67994.34;10085033;28;20109;-63
2022/05/08 17:24:35;;;;;;;14.55;4.40;;;;;;;-146.18;100.00;67994.34;10076443;28;20133;-63
2022/05/08 17:29:37;;;;;;;17.95;4.22;;;;;;;-146.18;100.00;67994.34;10074675;28;20098;-63
2022/05/08 17:34:34;;;;;;;17.95;3.20;;;;;;;-146.18;100.00;67994.34;10086351;28;20043;-63
2022/05/08 17:39:30;;;;;;;16.15;3.95;;;;;;;-146.18;100.00;67994.34;10090785;28;20290;-63
2022/05/08 17:44:27;;;;;;;14.15;4.18;;;;;;;-146.18;100.00;67994.34;10087820;28;20077;-63
2022/05/08 17:49:24;;;;;;;12.85;3.00;;;;;;;-146.18;100.00;67994.34;10071101;28;20130;-63
2022/05/08 17:54:20;;;;;;;14.38;2.53;;;;;;;-146.18;100.00;67994.34;10077429;28;20051;-63
2022/05/08 17:59:17;;;;;;;15.38;3.03;;;;;;;-146.18;100.00;67994.34;10089602;28;20034;-63
2022/05/08 18:09:35;;;;;;;17.13;3.33;;;;;;;-146.18;100.00;67994.34;10059114;28;20058;-64
2022/05/08 18:14:31;;;;;;;14.48;2.35;;;;;;;-146.18;100.00;67994.34;10064613;28;20085;-64
2022/05/08 18:19:28;;;;;;;13.77;2.70;;;;;;;-146.18;100.00;67994.34;10087743;28;20079;-65
2022/05/08 18:24:26;;;;;;;15.88;2.78;;;;;;;-146.18;100.00;67994.34;10086835;28;20079;-63
2022/05/08 18:29:22;;;;;;;17.05;2.97;;;;;;;-146.18;100.00;67994.34;10080498;28;20162;-64
2022/05/08 18:34:18;;;;;;;12.32;2.50;;;;;;;-146.18;100.00;67994.34;10088220;28;20142;-64
2022/05/08 18:39:15;;;;;;;17.80;3.20;;;;;;;-146.18;100.00;67994.34;10088113;28;20126;-64
2022/05/08 18:44:11;;;;;;;12.07;2.78;;;;;;;-146.18;100.00;67994.34;10104294;28;20130;-64
2022/05/08 18:49:20;;;;;;;15.90;2.97;;;;;;;-146.18;100.00;67994.34;10106862;28;20085;-64
2022/05/08 18:54:17;;;;;;;19.05;3.10;;;;;;;-146.18;100.00;67994.34;10075698;28;20138;-64
2022/05/08 18:59:15;;;;;;;18.10;3.20;;;;;;;-146.18;100.00;67994.34;10092386;28;20555;-64
2022/05/08 19:04:13;;;;;;;12.18;3.50;;;;;;;-146.18;100.00;67994.34;10084616;28;20079;-64
2022/05/08 19:09:11;;;;;;;15.57;3.38;;;;;;;-146.18;100.00;67994.34;10074778;28;20134;-64
2022/05/08 19:14:11;;;;;;;17.92;3.35;;;;;;;-146.18;100.00;67994.34;10080856;28;20043;-64
2022/05/08 19:19:08;;;;;;;11.73;3.13;;;;;;;-146.18;100.00;67994.34;10080108;28;20210;-63
2022/05/08 19:24:06;;;;;;;13.82;3.00;;;;;;;-146.18;100.00;67994.34;10093118;28;20125;-64
2022/05/08 19:29:06;;;;;;;17.00;3.50;;;;;;;-146.18;100.00;67994.34;10097109;28;20115;-64
2022/05/08 19:39:17;;;;;;;19.25;5.03;;;;;;;-146.18;100.00;67994.34;10096245;28;20584;-64
2022/05/08 19:44:14;;;;;;;8.98;2.95;;;;;;;-146.18;100.00;67994.34;10099661;28;20126;-64
2022/05/08 19:49:12;;;;;;;11.65;3.22;;;;;;;-146.18;100.00;67994.34;10102481;28;20084;-64
2022/05/08 19:54:08;;;;;;;17.77;4.10;;;;;;;-146.18;100.00;67994.34;10093851;28;20129;-64
2022/05/08 19:59:05;;;;;;;22.20;4.20;;;;;;;-146.18;100.00;67994.34;10080457;28;20463;-64
2022/05/08 20:04:01;;;;;;;15.13;3.13;;;;;;;-146.18;100.00;67994.34;10081700;28;20126;-63
2022/05/08 20:08:58;;;;;;;12.48;2.95;;;;;;;-146.18;100.00;67994.34;10098156;28;20050;-63
2022/05/08 20:13:54;;;;;;;13.75;4.00;;;;;;;-146.18;100.00;67994.34;10088354;28;20822;-63
2022/05/08 20:18:51;;;;;;;15.95;3.05;;;;;;;-146.18;100.00;67994.34;10078456;28;20050;-64
2022/05/08 20:23:49;;;;;;;16.65;3.22;;;;;;;-146.18;100.00;67994.34;10076780;28;20134;-63
2022/05/08 20:28:47;;;;;;;15.38;4.25;;;;;;;-146.18;100.00;67994.34;10084779;28;20534;-64
2022/05/08 20:33:43;;;;;;;19.35;4.75;;;;;;;-146.18;100.00;67994.34;10088336;28;20093;-65
2022/05/08 20:38:40;;;;;;;16.13;3.97;;;;;;;-146.18;100.00;67994.34;10075250;28;20737;-65
2022/05/08 20:43:37;;;;;;;14.10;3.50;;;;;;;-146.18;100.00;67994.34;10073849;28;20166;-64
2022/05/08 20:48:33;;;;;;;11.63;3.15;;;;;;;-146.18;100.00;67994.34;10081135;28;20130;-64
2022/05/08 20:53:30;;;;;;;12.30;3.40;;;;;;;-146.18;100.00;67994.34;10090576;28;20101;-64
2022/05/08 20:58:27;;;;;;;9.10;3.13;;;;;;;-146.18;100.00;67994.34;10098812;28;20089;-64
2022/05/08 21:03:23;;;;;;;16.80;3.03;;;;;;;-146.18;100.00;67994.34;10081716;28;20051;-64
2022/05/08 21:08:20;;;;;;;11.45;3.45;;;;;;;-146.18;100.00;67994.34;10106469;28;20074;-63
2022/05/08 21:13:21;;;;;;;10.50;2.97;;;;;;;-146.18;100.00;67994.34;10112521;28;20053;-62
2022/05/08 21:18:17;;;;;;;10.07;3.03;;;;;;;-146.18;100.00;67994.34;10092127;28;20038;-63
2022/05/08 21:23:14;;;;;;;9.50;3.20;;;;;;;-146.18;100.00;67994.34;10112489;28;20079;-65
2022/05/08 21:28:11;;;;;;;12.43;3.17;;;;;;;-146.18;100.00;67994.34;10103613;28;20138;-64
2022/05/08 21:33:07;;;;;;;10.60;3.08;;;;;;;-146.18;100.00;67994.34;10110752;28;20059;-65
2022/05/08 21:38:05;;;;;;;12.25;3.33;;;;;;;-146.18;100.00;67994.34;10109173;28;20047;-65
2022/05/08 21:43:01;;;;;;;12.57;3.70;;;;;;;-146.18;100.00;67994.34;10113328;28;20443;-63
2022/05/08 21:47:58;;;;;;;11.23;3.75;;;;;;;-146.18;100.00;67994.34;10107155;28;20511;-64
2022/05/08 21:52:54;;;;;;;13.25;3.53;;;;;;;-146.18;100.00;67994.34;10113884;28;20050;-64
2022/05/08 21:57:51;;;;;;;14.65;3.45;;;;;;;-146.18;100.00;67994.34;10088437;28;20075;-64
2022/05/08 22:02:47;;;;;;;8.88;2.85;;;;;;;-146.18;100.00;67994.34;10111757;28;20118;-64
2022/05/08 22:07:49;;;;;;;7.53;2.50;;;;;;;-146.18;100.00;67994.34;10109127;28;20074;-64
2022/05/08 22:12:45;;;;;;;10.02;3.00;;;;;;;-146.18;100.00;67994.34;10104532;28;20471;-64
2022/05/08 22:17:42;;;;;;;11.40;2.58;;;;;;;-146.18;100.00;67994.34;10097258;28;20171;-64
2022/05/08 22:22:38;;;;;;;8.15;2.75;;;;;;;-146.18;100.00;67994.34;10097234;28;20050;-64
2022/05/08 22:27:36;;;;;;;10.07;2.53;;;;;;;-146.18;100.00;67994.34;10105247;28;20077;-64
2022/05/08 22:32:32;;;;;;;9.50;2.97;;;;;;;-146.18;100.00;67994.34;10094626;28;20199;-65
2022/05/08 22:37:29;;;;;;;7.85;2.72;;;;;;;-146.18;100.00;67994.34;10105272;28;20515;-65
2022/05/08 22:42:25;;;;;;;8.10;2.83;;;;;;;-146.18;100.00;67994.34;10094486;28;20057;-64
2022/05/08 22:47:22;;;;;;;8.07;1.98;;;;;;;-146.18;100.00;67994.34;10099256;28;20089;-65
2022/05/08 22:52:18;;;;;;;8.05;2.17;;;;;;;-146.18;100.00;67994.34;10110627;28;20155;-65
2022/05/08 22:57:15;;;;;;;6.80;2.20;;;;;;;-146.18;100.00;67994.34;10103772;28;20142;-64
2022/05/08 23:02:11;;;;;;;9.45;2.83;;;;;;;-146.18;100.00;67994.34;10097318;28;20050;-64
2022/05/08 23:07:08;;;;;;;10.40;2.53;;;;;;;-146.18;100.00;67994.34;10101340;28;20063;-63
2022/05/08 23:12:05;;;;;;;10.95;3.03;;;;;;;-146.18;100.00;67994.34;10105275;28;20051;-64
2022/05/08 23:17:01;;;;;;;9.38;2.95;;;;;;;-146.18;100.00;67994.34;10079707;28;20102;-63
2022/05/08 23:21:58;;;;;;;9.25;3.25;;;;;;;-146.18;100.00;67994.34;10093311;28;20144;-63
2022/05/08 23:26:55;;;;;;;9.30;3.15;;;;;;;-146.18;100.00;67994.34;10095369;28;20097;-64